sensor_id;sensor_type;location;lat;lon;timestamp;pressure;altitude;pressure_sealevel;temperature;humidity
13209;BME280;6669;42.678;23.332;2024-02-16T00:01:36;95116.94;;;2.67;100.00
13209;BME280;6669;42.678;23.332;2024-02-16T00:04:05;95118.81;;;2.65;100.00
13209;BME280;6669;42.678;23.332;2024-02-16T00:06:34;95107.66;;;2.53;100.00
13209;BME280;6669;42.678;23.332;2024-02-16T00:09:03;95125.63;;;2.53;100.00
13209;BME280;6669;42.678;23.332;2024-02-16T00:11:31;95115.38;;;2.53;100.00
13209;BME280;6669;42.678;23.332;2024-02-16T00:13:59;95127.63;;;2.50;100.00
13209;BME280;6669;42.678;23.332;2024-02-16T00:16:28;95128.19;;;2.42;100.00
13209;BME280;6669;42.678;23.332;2024-02-16T00:18:56;95125.97;;;2.24;100.00
13209;BME280;6669;42.678;23.332;2024-02-16T00:21:27;95124.16;;;2.13;100.00
13209;BME280;6669;42.678;23.332;2024-02-16T00:23:55;95127.06;;;2.09;100.00
13209;BME280;6669;42.678;23.332;2024-02-16T00:26:24;95123.34;;;2.13;100.00
13209;BME280;6669;42.678;23.332;2024-02-16T00:28:52;95124.38;;;2.10;100.00
13209;BME280;6669;42.678;23.332;2024-02-16T00:31:20;95125.63;;;2.05;100.00
13209;BME280;6669;42.678;23.332;2024-02-16T00:33:48;95122.66;;;1.98;100.00
13209;BME280;6669;42.678;23.332;2024-02-16T00:36:17;95127.31;;;1.93;100.00
13209;BME280;6669;42.678;23.332;2024-02-16T00:38:46;95124.44;;;1.98;100.00
13209;BME280;6669;42.678;23.332;2024-02-16T00:41:19;95125.47;;;1.95;100.00
13209;BME280;6669;42.678;23.332;2024-02-16T00:43:47;95130.91;;;1.90;100.00
13209;BME280;6669;42.678;23.332;2024-02-16T00:46:15;95130.09;;;1.90;100.00
13209;BME280;6669;42.678;23.332;2024-02-16T00:48:44;95123.63;;;1.84;100.00
13209;BME280;6669;42.678;23.332;2024-02-16T00:51:13;95126.19;;;1.84;100.00
13209;BME280;6669;42.678;23.332;2024-02-16T00:53:42;95129.28;;;1.76;100.00
13209;BME280;6669;42.678;23.332;2024-02-16T00:56:11;95135.53;;;1.85;100.00
13209;BME280;6669;42.678;23.332;2024-02-16T00:58:40;95126.91;;;1.86;100.00
13209;BME280;6669;42.678;23.332;2024-02-16T01:01:09;95125.03;;;1.88;100.00
13209;BME280;6669;42.678;23.332;2024-02-16T01:03:39;95124.19;;;2.01;100.00
13209;BME280;6669;42.678;23.332;2024-02-16T01:06:07;95130.47;;;1.96;100.00
13209;BME280;6669;42.678;23.332;2024-02-16T01:08:37;95123.56;;;2.10;100.00
13209;BME280;6669;42.678;23.332;2024-02-16T01:11:05;95119.38;;;2.09;100.00
13209;BME280;6669;42.678;23.332;2024-02-16T01:13:35;95126.72;;;2.13;100.00
13209;BME280;6669;42.678;23.332;2024-02-16T01:16:04;95121.47;;;2.15;100.00
13209;BME280;6669;42.678;23.332;2024-02-16T01:18:32;95128.88;;;2.20;100.00
13209;BME280;6669;42.678;23.332;2024-02-16T01:21:04;95121.72;;;2.12;100.00
13209;BME280;6669;42.678;23.332;2024-02-16T01:23:32;95116.53;;;2.25;100.00
13209;BME280;6669;42.678;23.332;2024-02-16T01:26:00;95124.47;;;2.22;100.00
13209;BME280;6669;42.678;23.332;2024-02-16T01:28:28;95104.53;;;2.25;100.00
13209;BME280;6669;42.678;23.332;2024-02-16T01:30:58;95111.88;;;2.30;100.00
13209;BME280;6669;42.678;23.332;2024-02-16T01:33:26;95110.25;;;2.29;100.00
13209;BME280;6669;42.678;23.332;2024-02-16T01:35:56;95105.94;;;2.29;100.00
13209;BME280;6669;42.678;23.332;2024-02-16T01:38:24;95107.16;;;2.37;100.00
13209;BME280;6669;42.678;23.332;2024-02-16T01:40:52;95104.03;;;2.44;100.00
13209;BME280;6669;42.678;23.332;2024-02-16T01:43:21;95104.84;;;2.45;100.00
13209;BME280;6669;42.678;23.332;2024-02-16T01:45:49;95099.78;;;2.56;100.00
13209;BME280;6669;42.678;23.332;2024-02-16T01:48:19;95097.81;;;2.60;100.00
13209;BME280;6669;42.678;23.332;2024-02-16T01:50:48;95102.69;;;2.63;100.00
13209;BME280;6669;42.678;23.332;2024-02-16T01:53:17;95100.75;;;2.67;100.00
13209;BME280;6669;42.678;23.332;2024-02-16T01:55:46;95085.56;;;2.64;100.00
13209;BME280;6669;42.678;23.332;2024-02-16T01:58:14;95094.19;;;2.63;100.00
13209;BME280;6669;42.678;23.332;2024-02-16T02:00:43;95102.38;;;2.68;100.00
13209;BME280;6669;42.678;23.332;2024-02-16T02:03:11;95098.41;;;2.64;100.00
13209;BME280;6669;42.678;23.332;2024-02-16T02:05:45;95093.22;;;2.52;100.00
13209;BME280;6669;42.678;23.332;2024-02-16T02:08:14;95092.03;;;2.45;100.00
13209;BME280;6669;42.678;23.332;2024-02-16T02:10:42;95096.56;;;2.41;100.00
13209;BME280;6669;42.678;23.332;2024-02-16T02:13:11;95106.00;;;2.41;100.00
13209;BME280;6669;42.678;23.332;2024-02-16T02:15:39;95095.63;;;2.42;100.00
13209;BME280;6669;42.678;23.332;2024-02-16T02:18:08;95095.25;;;2.36;100.00
13209;BME280;6669;42.678;23.332;2024-02-16T02:20:36;95096.63;;;2.28;100.00
13209;BME280;6669;42.678;23.332;2024-02-16T02:23:06;95090.28;;;2.21;100.00
13209;BME280;6669;42.678;23.332;2024-02-16T02:25:35;95100.53;;;2.21;100.00
13209;BME280;6669;42.678;23.332;2024-02-16T02:28:03;95103.53;;;2.15;100.00
13209;BME280;6669;42.678;23.332;2024-02-16T02:30:32;95103.81;;;2.23;100.00
13209;BME280;6669;42.678;23.332;2024-02-16T02:33:01;95103.31;;;2.18;100.00
13209;BME280;6669;42.678;23.332;2024-02-16T02:35:29;95104.47;;;2.14;100.00
13209;BME280;6669;42.678;23.332;2024-02-16T02:37:57;95102.03;;;2.00;100.00
13209;BME280;6669;42.678;23.332;2024-02-16T02:40:27;95104.84;;;1.96;100.00
13209;BME280;6669;42.678;23.332;2024-02-16T02:42:55;95105.38;;;1.89;100.00
13209;BME280;6669;42.678;23.332;2024-02-16T02:45:23;95105.50;;;1.87;100.00
13209;BME280;6669;42.678;23.332;2024-02-16T02:47:51;95101.16;;;1.88;100.00
13209;BME280;6669;42.678;23.332;2024-02-16T02:50:20;95092.66;;;1.87;100.00
13209;BME280;6669;42.678;23.332;2024-02-16T02:52:48;95103.19;;;1.95;100.00
13209;BME280;6669;42.678;23.332;2024-02-16T02:55:16;95098.78;;;1.98;100.00
13209;BME280;6669;42.678;23.332;2024-02-16T02:57:46;95096.22;;;1.98;100.00
13209;BME280;6669;42.678;23.332;2024-02-16T03:00:15;95095.72;;;1.92;100.00
13209;BME280;6669;42.678;23.332;2024-02-16T03:02:43;95104.72;;;1.98;100.00
13209;BME280;6669;42.678;23.332;2024-02-16T03:05:12;95111.00;;;1.94;100.00
13209;BME280;6669;42.678;23.332;2024-02-16T03:07:40;95107.53;;;1.95;100.00
13209;BME280;6669;42.678;23.332;2024-02-16T03:10:08;95101.34;;;1.98;100.00
13209;BME280;6669;42.678;23.332;2024-02-16T03:12:37;95103.91;;;1.98;100.00
13209;BME280;6669;42.678;23.332;2024-02-16T03:15:08;95094.69;;;1.95;100.00
13209;BME280;6669;42.678;23.332;2024-02-16T03:17:36;95099.81;;;1.95;100.00
13209;BME280;6669;42.678;23.332;2024-02-16T03:20:06;95100.63;;;1.95;100.00
13209;BME280;6669;42.678;23.332;2024-02-16T03:22:34;95108.44;;;1.94;100.00
13209;BME280;6669;42.678;23.332;2024-02-16T03:25:03;95104.13;;;1.94;100.00
13209;BME280;6669;42.678;23.332;2024-02-16T03:27:32;95092.66;;;1.87;100.00
13209;BME280;6669;42.678;23.332;2024-02-16T03:30:00;95106.69;;;1.94;100.00
13209;BME280;6669;42.678;23.332;2024-02-16T03:32:31;95093.41;;;1.76;100.00
13209;BME280;6669;42.678;23.332;2024-02-16T03:34:59;95107.47;;;1.71;100.00
13209;BME280;6669;42.678;23.332;2024-02-16T03:37:28;95102.47;;;1.56;100.00
13209;BME280;6669;42.678;23.332;2024-02-16T03:39:57;95104.91;;;1.71;100.00
13209;BME280;6669;42.678;23.332;2024-02-16T03:42:25;95108.78;;;1.76;100.00
13209;BME280;6669;42.678;23.332;2024-02-16T03:44:53;95105.00;;;1.69;100.00
13209;BME280;6669;42.678;23.332;2024-02-16T03:47:23;95105.00;;;1.69;100.00
13209;BME280;6669;42.678;23.332;2024-02-16T03:49:53;95113.63;;;1.68;100.00
13209;BME280;6669;42.678;23.332;2024-02-16T03:52:21;95112.19;;;1.64;100.00
13209;BME280;6669;42.678;23.332;2024-02-16T03:54:50;95105.25;;;1.53;100.00
13209;BME280;6669;42.678;23.332;2024-02-16T03:57:18;95107.56;;;1.56;100.00
13209;BME280;6669;42.678;23.332;2024-02-16T03:59:47;95109.22;;;1.57;100.00
13209;BME280;6669;42.678;23.332;2024-02-16T04:02:15;95109.22;;;1.57;100.00
13209;BME280;6669;42.678;23.332;2024-02-16T04:04:43;95108.50;;;1.55;100.00
13209;BME280;6669;42.678;23.332;2024-02-16T04:07:13;95107.38;;;1.59;100.00
13209;BME280;6669;42.678;23.332;2024-02-16T04:09:41;95100.81;;;1.68;100.00
13209;BME280;6669;42.678;23.332;2024-02-16T04:12:09;95102.13;;;1.74;100.00
13209;BME280;6669;42.678;23.332;2024-02-16T04:14:38;95099.06;;;1.69;100.00
13209;BME280;6669;42.678;23.332;2024-02-16T04:17:08;95108.31;;;1.58;100.00
13209;BME280;6669;42.678;23.332;2024-02-16T04:19:36;95107.06;;;1.51;100.00
13209;BME280;6669;42.678;23.332;2024-02-16T04:22:05;95099.63;;;1.48;100.00
13209;BME280;6669;42.678;23.332;2024-02-16T04:24:35;95105.66;;;1.34;100.00
13209;BME280;6669;42.678;23.332;2024-02-16T04:27:03;95102.38;;;1.19;100.00
13209;BME280;6669;42.678;23.332;2024-02-16T04:29:34;95104.31;;;1.16;100.00
13209;BME280;6669;42.678;23.332;2024-02-16T04:32:03;95108.94;;;1.10;100.00
13209;BME280;6669;42.678;23.332;2024-02-16T04:34:31;95108.13;;;1.10;100.00
13209;BME280;6669;42.678;23.332;2024-02-16T04:37:00;95098.81;;;0.96;100.00
13209;BME280;6669;42.678;23.332;2024-02-16T04:39:28;95106.09;;;1.02;100.00
13209;BME280;6669;42.678;23.332;2024-02-16T04:41:59;95111.50;;;0.97;100.00
13209;BME280;6669;42.678;23.332;2024-02-16T04:44:27;95115.88;;;0.82;100.00
13209;BME280;6669;42.678;23.332;2024-02-16T04:46:55;95117.63;;;0.82;100.00
13209;BME280;6669;42.678;23.332;2024-02-16T04:49:24;95115.06;;;0.82;100.00
13209;BME280;6669;42.678;23.332;2024-02-16T04:51:52;95116.88;;;0.80;100.00
13209;BME280;6669;42.678;23.332;2024-02-16T04:54:20;95110.22;;;0.64;100.00
13209;BME280;6669;42.678;23.332;2024-02-16T04:56:50;95125.97;;;0.71;100.00
13209;BME280;6669;42.678;23.332;2024-02-16T04:59:19;95127.81;;;0.56;100.00
13209;BME280;6669;42.678;23.332;2024-02-16T05:01:48;95110.78;;;0.42;100.00
13209;BME280;6669;42.678;23.332;2024-02-16T05:04:16;95123.25;;;0.47;100.00
13209;BME280;6669;42.678;23.332;2024-02-16T05:06:45;95125.81;;;0.47;100.00
13209;BME280;6669;42.678;23.332;2024-02-16T05:09:13;95128.06;;;0.39;100.00
13209;BME280;6669;42.678;23.332;2024-02-16T05:11:44;95119.75;;;0.35;100.00
13209;BME280;6669;42.678;23.332;2024-02-16T05:14:12;95129.06;;;0.36;100.00
13209;BME280;6669;42.678;23.332;2024-02-16T05:16:44;95129.88;;;0.37;100.00
13209;BME280;6669;42.678;23.332;2024-02-16T05:19:12;95139.97;;;0.25;100.00
13209;BME280;6669;42.678;23.332;2024-02-16T05:21:41;95135.38;;;0.30;100.00
13209;BME280;6669;42.678;23.332;2024-02-16T05:24:09;95148.16;;;0.30;100.00
13209;BME280;6669;42.678;23.332;2024-02-16T05:27:01;95149.28;;;0.26;100.00
13209;BME280;6669;42.678;23.332;2024-02-16T05:29:29;95148.91;;;0.32;100.00
13209;BME280;6669;42.678;23.332;2024-02-16T05:31:57;95148.25;;;0.29;100.00
13209;BME280;6669;42.678;23.332;2024-02-16T05:34:26;95149.47;;;0.23;100.00
13209;BME280;6669;42.678;23.332;2024-02-16T05:36:59;95157.47;;;0.31;100.00
13209;BME280;6669;42.678;23.332;2024-02-16T05:39:28;95157.38;;;0.33;100.00
13209;BME280;6669;42.678;23.332;2024-02-16T05:41:58;95164.34;;;0.31;100.00
13209;BME280;6669;42.678;23.332;2024-02-16T05:44:27;95165.16;;;0.31;100.00
13209;BME280;6669;42.678;23.332;2024-02-16T05:46:57;95166.06;;;0.30;100.00
13209;BME280;6669;42.678;23.332;2024-02-16T05:49:25;95154.78;;;0.20;100.00
13209;BME280;6669;42.678;23.332;2024-02-16T05:51:54;95165.72;;;0.22;100.00
13209;BME280;6669;42.678;23.332;2024-02-16T05:54:40;95158.44;;;0.16;100.00
13209;BME280;6669;42.678;23.332;2024-02-16T05:57:09;95170.84;;;0.22;100.00
13209;BME280;6669;42.678;23.332;2024-02-16T05:59:37;95167.84;;;0.15;100.00
13209;BME280;6669;42.678;23.332;2024-02-16T06:02:08;95151.94;;;0.25;100.00
13209;BME280;6669;42.678;23.332;2024-02-16T06:04:38;95170.78;;;0.37;100.00
13209;BME280;6669;42.678;23.332;2024-02-16T06:07:07;95170.09;;;0.35;100.00
13209;BME280;6669;42.678;23.332;2024-02-16T06:09:36;95166.03;;;0.45;100.00
13209;BME280;6669;42.678;23.332;2024-02-16T06:12:06;95166.75;;;0.47;100.00
13209;BME280;6669;42.678;23.332;2024-02-16T06:14:36;95163.91;;;0.52;100.00
13209;BME280;6669;42.678;23.332;2024-02-16T06:17:04;95169.03;;;0.52;100.00
13209;BME280;6669;42.678;23.332;2024-02-16T06:19:34;95171.47;;;0.53;100.00
13209;BME280;6669;42.678;23.332;2024-02-16T06:22:03;95175.94;;;0.64;100.00
13209;BME280;6669;42.678;23.332;2024-02-16T06:24:31;95172.88;;;0.72;100.00
13209;BME280;6669;42.678;23.332;2024-02-16T06:26:59;95168.94;;;0.66;100.00
13209;BME280;6669;42.678;23.332;2024-02-16T06:29:28;95179.78;;;0.84;100.00
13209;BME280;6669;42.678;23.332;2024-02-16T06:31:58;95167.56;;;0.75;100.00
13209;BME280;6669;42.678;23.332;2024-02-16T06:34:26;95172.00;;;0.86;100.00
13209;BME280;6669;42.678;23.332;2024-02-16T06:36:56;95171.69;;;0.90;100.00
13209;BME280;6669;42.678;23.332;2024-02-16T06:39:24;95175.81;;;1.06;100.00
13209;BME280;6669;42.678;23.332;2024-02-16T06:41:52;95171.13;;;1.25;100.00
13209;BME280;6669;42.678;23.332;2024-02-16T06:44:21;95168.56;;;1.25;100.00
13209;BME280;6669;42.678;23.332;2024-02-16T06:46:50;95171.03;;;1.40;100.00
13209;BME280;6669;42.678;23.332;2024-02-16T06:49:20;95155.47;;;1.43;100.00
13209;BME280;6669;42.678;23.332;2024-02-16T06:51:48;95177.69;;;1.55;100.00
13209;BME280;6669;42.678;23.332;2024-02-16T06:54:18;95175.44;;;1.63;100.00
13209;BME280;6669;42.678;23.332;2024-02-16T06:56:46;95170.41;;;1.75;100.00
13209;BME280;6669;42.678;23.332;2024-02-16T06:59:15;95175.31;;;1.78;100.00
13209;BME280;6669;42.678;23.332;2024-02-16T07:01:43;95178.38;;;1.83;100.00
13209;BME280;6669;42.678;23.332;2024-02-16T07:04:12;95174.06;;;1.96;100.00
13209;BME280;6669;42.678;23.332;2024-02-16T07:06:40;95177.31;;;2.11;100.00
13209;BME280;6669;42.678;23.332;2024-02-16T07:09:09;95181.19;;;2.17;100.00
13209;BME280;6669;42.678;23.332;2024-02-16T07:11:38;95180.47;;;2.28;100.00
13209;BME280;6669;42.678;23.332;2024-02-16T07:14:06;95186.91;;;2.34;100.00
13209;BME280;6669;42.678;23.332;2024-02-16T07:16:35;95176.81;;;2.43;100.00
13209;BME280;6669;42.678;23.332;2024-02-16T07:19:03;95178.84;;;2.51;100.00
13209;BME280;6669;42.678;23.332;2024-02-16T07:21:32;95178.13;;;2.49;100.00
13209;BME280;6669;42.678;23.332;2024-02-16T07:24:00;95172.44;;;2.57;100.00
13209;BME280;6669;42.678;23.332;2024-02-16T07:26:29;95166.88;;;2.63;100.00
13209;BME280;6669;42.678;23.332;2024-02-16T07:28:59;95174.44;;;2.65;100.00
13209;BME280;6669;42.678;23.332;2024-02-16T07:31:32;95163.06;;;2.69;100.00
13209;BME280;6669;42.678;23.332;2024-02-16T07:34:00;95158.47;;;2.61;100.00
13209;BME280;6669;42.678;23.332;2024-02-16T07:36:29;95172.69;;;2.89;100.00
13209;BME280;6669;42.678;23.332;2024-02-16T07:38:58;95174.88;;;3.07;100.00
13209;BME280;6669;42.678;23.332;2024-02-16T07:41:26;95180.38;;;3.14;100.00
13209;BME280;6669;42.678;23.332;2024-02-16T07:43:54;95176.31;;;3.22;100.00
13209;BME280;6669;42.678;23.332;2024-02-16T07:46:24;95170.94;;;3.25;100.00
13209;BME280;6669;42.678;23.332;2024-02-16T07:48:52;95172.13;;;3.33;100.00
13209;BME280;6669;42.678;23.332;2024-02-16T07:51:21;95170.84;;;3.38;100.00
13209;BME280;6669;42.678;23.332;2024-02-16T07:53:51;95172.50;;;3.51;100.00
13209;BME280;6669;42.678;23.332;2024-02-16T07:56:19;95175.56;;;3.67;100.00
13209;BME280;6669;42.678;23.332;2024-02-16T07:58:47;95178.25;;;3.77;100.00
13209;BME280;6669;42.678;23.332;2024-02-16T08:01:17;95177.88;;;3.93;100.00
13209;BME280;6669;42.678;23.332;2024-02-16T08:03:47;95177.09;;;4.04;100.00
13209;BME280;6669;42.678;23.332;2024-02-16T08:06:16;95181.16;;;4.18;100.00
13209;BME280;6669;42.678;23.332;2024-02-16T08:08:47;95184.19;;;4.23;100.00
13209;BME280;6669;42.678;23.332;2024-02-16T08:11:15;95183.16;;;4.25;100.00
13209;BME280;6669;42.678;23.332;2024-02-16T08:13:43;95184.38;;;4.42;100.00
13209;BME280;6669;42.678;23.332;2024-02-16T08:16:12;95183.78;;;4.50;100.00
13209;BME280;6669;42.678;23.332;2024-02-16T08:18:40;95179.31;;;4.64;100.00
13209;BME280;6669;42.678;23.332;2024-02-16T08:21:12;95185.25;;;4.75;100.00
13209;BME280;6669;42.678;23.332;2024-02-16T08:23:41;95177.66;;;4.74;100.00
13209;BME280;6669;42.678;23.332;2024-02-16T08:26:09;95172.00;;;4.80;100.00
13209;BME280;6669;42.678;23.332;2024-02-16T08:28:37;95178.25;;;4.99;100.00
13209;BME280;6669;42.678;23.332;2024-02-16T08:31:06;95182.91;;;5.05;100.00
13209;BME280;6669;42.678;23.332;2024-02-16T08:33:34;95185.56;;;5.15;100.00
13209;BME280;6669;42.678;23.332;2024-02-16T08:36:06;95187.88;;;5.18;100.00
13209;BME280;6669;42.678;23.332;2024-02-16T08:38:37;95186.50;;;5.14;100.00
13209;BME280;6669;42.678;23.332;2024-02-16T08:41:06;95182.09;;;5.26;100.00
13209;BME280;6669;42.678;23.332;2024-02-16T08:43:34;95181.66;;;5.42;100.00
13209;BME280;6669;42.678;23.332;2024-02-16T08:46:03;95178.75;;;5.56;100.00
13209;BME280;6669;42.678;23.332;2024-02-16T08:48:31;95178.81;;;5.66;100.00
13209;BME280;6669;42.678;23.332;2024-02-16T08:51:00;95178.88;;;5.76;100.00
13209;BME280;6669;42.678;23.332;2024-02-16T08:53:29;95184.84;;;5.76;100.00
13209;BME280;6669;42.678;23.332;2024-02-16T08:55:59;95188.94;;;5.79;100.00
13209;BME280;6669;42.678;23.332;2024-02-16T08:58:27;95186.53;;;5.87;100.00
13209;BME280;6669;42.678;23.332;2024-02-16T09:00:56;95182.84;;;6.01;100.00
13209;BME280;6669;42.678;23.332;2024-02-16T09:03:24;95175.81;;;6.13;100.00
13209;BME280;6669;42.678;23.332;2024-02-16T09:05:53;95185.50;;;6.30;100.00
13209;BME280;6669;42.678;23.332;2024-02-16T09:08:21;95181.00;;;6.32;100.00
13209;BME280;6669;42.678;23.332;2024-02-16T09:10:49;95179.81;;;6.46;100.00
13209;BME280;6669;42.678;23.332;2024-02-16T09:13:19;95175.34;;;6.48;100.00
13209;BME280;6669;42.678;23.332;2024-02-16T09:16:00;95186.53;;;6.68;100.00
13209;BME280;6669;42.678;23.332;2024-02-16T09:18:28;95194.94;;;6.70;100.00
13209;BME280;6669;42.678;23.332;2024-02-16T09:20:57;95195.78;;;6.71;100.00
13209;BME280;6669;42.678;23.332;2024-02-16T09:23:26;95193.50;;;6.87;100.00
13209;BME280;6669;42.678;23.332;2024-02-16T09:25:55;95190.09;;;7.07;100.00
13209;BME280;6669;42.678;23.332;2024-02-16T09:28:25;95188.44;;;7.25;100.00
13209;BME280;6669;42.678;23.332;2024-02-16T09:30:56;95177.31;;;7.34;100.00
13209;BME280;6669;42.678;23.332;2024-02-16T09:33:25;95184.75;;;7.47;100.00
13209;BME280;6669;42.678;23.332;2024-02-16T09:35:54;95187.59;;;7.54;100.00
13209;BME280;6669;42.678;23.332;2024-02-16T09:38:23;95179.13;;;7.62;100.00
13209;BME280;6669;42.678;23.332;2024-02-16T09:40:51;95178.00;;;7.84;100.00
13209;BME280;6669;42.678;23.332;2024-02-16T09:43:29;95176.41;;;8.11;100.00
13209;BME280;6669;42.678;23.332;2024-02-16T09:45:58;95178.66;;;8.24;100.00
13209;BME280;6669;42.678;23.332;2024-02-16T09:48:27;95174.63;;;8.67;100.00
13209;BME280;6669;42.678;23.332;2024-02-16T09:50:57;95183.16;;;9.13;100.00
13209;BME280;6669;42.678;23.332;2024-02-16T09:53:27;95168.13;;;9.88;99.33
13209;BME280;6669;42.678;23.332;2024-02-16T09:55:56;95171.81;;;10.46;95.84
13209;BME280;6669;42.678;23.332;2024-02-16T09:58:27;95174.38;;;11.05;87.19
13209;BME280;6669;42.678;23.332;2024-02-16T10:00:55;95162.38;;;11.45;81.66
13209;BME280;6669;42.678;23.332;2024-02-16T10:03:25;95164.53;;;12.06;80.59
13209;BME280;6669;42.678;23.332;2024-02-16T10:06:04;95155.50;;;12.34;77.38
13209;BME280;6669;42.678;23.332;2024-02-16T10:08:34;95150.44;;;12.64;75.12
13209;BME280;6669;42.678;23.332;2024-02-16T10:11:03;95149.16;;;12.91;73.83
13209;BME280;6669;42.678;23.332;2024-02-16T10:13:33;95143.31;;;13.12;71.72
13209;BME280;6669;42.678;23.332;2024-02-16T10:16:06;95139.69;;;12.90;70.85
13209;BME280;6669;42.678;23.332;2024-02-16T10:18:36;95138.25;;;13.11;70.10
13209;BME280;6669;42.678;23.332;2024-02-16T10:21:05;95138.06;;;13.35;69.89
13209;BME280;6669;42.678;23.332;2024-02-16T10:23:34;95129.34;;;13.05;70.62
13209;BME280;6669;42.678;23.332;2024-02-16T10:26:10;95136.69;;;13.24;69.95
13209;BME280;6669;42.678;23.332;2024-02-16T10:28:41;95139.06;;;13.11;69.99
13209;BME280;6669;42.678;23.332;2024-02-16T10:31:10;95127.41;;;12.99;69.42
13209;BME280;6669;42.678;23.332;2024-02-16T10:33:38;95123.88;;;13.15;69.06
13209;BME280;6669;42.678;23.332;2024-02-16T10:36:09;95123.03;;;13.37;68.46
13209;BME280;6669;42.678;23.332;2024-02-16T10:38:39;95114.91;;;13.55;67.84
13209;BME280;6669;42.678;23.332;2024-02-16T10:41:09;95118.56;;;13.46;66.65
13209;BME280;6669;42.678;23.332;2024-02-16T10:43:37;95107.34;;;13.61;68.64
13209;BME280;6669;42.678;23.332;2024-02-16T10:46:07;95107.88;;;13.56;67.67
13209;BME280;6669;42.678;23.332;2024-02-16T10:48:40;95117.25;;;13.65;67.19
13209;BME280;6669;42.678;23.332;2024-02-16T10:51:09;95110.13;;;14.19;67.31
13209;BME280;6669;42.678;23.332;2024-02-16T10:53:40;95111.19;;;14.39;65.96
13209;BME280;6669;42.678;23.332;2024-02-16T10:56:09;95109.88;;;14.65;65.92
13209;BME280;6669;42.678;23.332;2024-02-16T10:58:37;95103.44;;;14.83;64.81
13209;BME280;6669;42.678;23.332;2024-02-16T11:01:15;95090.66;;;14.58;64.27
13209;BME280;6669;42.678;23.332;2024-02-16T11:03:43;95095.69;;;14.75;63.16
13209;BME280;6669;42.678;23.332;2024-02-16T11:06:14;95095.25;;;14.71;64.00
13209;BME280;6669;42.678;23.332;2024-02-16T11:08:44;95090.69;;;15.01;63.58
13209;BME280;6669;42.678;23.332;2024-02-16T11:11:23;95093.84;;;15.40;62.57
13209;BME280;6669;42.678;23.332;2024-02-16T11:13:54;95087.94;;;15.31;61.95
13209;BME280;6669;42.678;23.332;2024-02-16T11:16:24;95085.22;;;15.46;61.92
13209;BME280;6669;42.678;23.332;2024-02-16T11:18:57;95083.69;;;15.59;61.60
13209;BME280;6669;42.678;23.332;2024-02-16T11:21:26;95088.38;;;15.35;60.73
13209;BME280;6669;42.678;23.332;2024-02-16T11:24:06;95076.13;;;15.42;60.98
13209;BME280;6669;42.678;23.332;2024-02-16T11:26:42;95078.59;;;15.50;61.95
13209;BME280;6669;42.678;23.332;2024-02-16T11:29:10;95070.94;;;15.49;61.16
13209;BME280;6669;42.678;23.332;2024-02-16T11:31:40;95079.03;;;15.54;61.14
13209;BME280;6669;42.678;23.332;2024-02-16T11:34:21;95073.28;;;15.65;60.60
13209;BME280;6669;42.678;23.332;2024-02-16T11:36:52;95071.16;;;15.82;60.43
13209;BME280;6669;42.678;23.332;2024-02-16T11:39:23;95059.75;;;15.68;59.61
13209;BME280;6669;42.678;23.332;2024-02-16T11:41:59;95069.81;;;15.65;59.63
13209;BME280;6669;42.678;23.332;2024-02-16T11:44:29;95064.75;;;15.57;59.06
13209;BME280;6669;42.678;23.332;2024-02-16T11:47:00;95062.72;;;15.87;58.39
13209;BME280;6669;42.678;23.332;2024-02-16T11:49:29;95060.25;;;16.21;58.61
13209;BME280;6669;42.678;23.332;2024-02-16T11:51:59;95053.66;;;16.45;57.47
13209;BME280;6669;42.678;23.332;2024-02-16T11:54:28;95064.19;;;16.58;57.77
13209;BME280;6669;42.678;23.332;2024-02-16T11:56:57;95054.50;;;16.59;57.31
13209;BME280;6669;42.678;23.332;2024-02-16T11:59:25;95060.13;;;16.56;56.24
13209;BME280;6669;42.678;23.332;2024-02-16T12:01:55;95051.69;;;16.67;56.73
13209;BME280;6669;42.678;23.332;2024-02-16T12:04:26;95043.09;;;16.25;56.70
13209;BME280;6669;42.678;23.332;2024-02-16T12:06:56;95049.19;;;16.39;57.16
13209;BME280;6669;42.678;23.332;2024-02-16T12:09:31;95050.59;;;16.34;56.76
13209;BME280;6669;42.678;23.332;2024-02-16T12:12:02;95048.69;;;16.08;56.62
13209;BME280;6669;42.678;23.332;2024-02-16T12:14:32;95047.38;;;16.32;55.68
13209;BME280;6669;42.678;23.332;2024-02-16T12:17:07;95031.66;;;15.91;56.40
13209;BME280;6669;42.678;23.332;2024-02-16T12:19:36;95030.41;;;15.80;57.61
13209;BME280;6669;42.678;23.332;2024-02-16T12:22:06;95033.06;;;16.42;57.07
13209;BME280;6669;42.678;23.332;2024-02-16T12:24:35;95045.47;;;16.81;56.55
13209;BME280;6669;42.678;23.332;2024-02-16T12:27:03;95030.97;;;17.06;55.84
13209;BME280;6669;42.678;23.332;2024-02-16T12:29:32;95036.41;;;17.31;55.68
13209;BME280;6669;42.678;23.332;2024-02-16T12:32:00;95033.50;;;16.59;55.45
13209;BME280;6669;42.678;23.332;2024-02-16T12:34:28;95033.69;;;16.44;55.26
13209;BME280;6669;42.678;23.332;2024-02-16T12:36:58;95026.53;;;16.93;55.00
13209;BME280;6669;42.678;23.332;2024-02-16T12:39:26;95027.47;;;16.78;55.19
13209;BME280;6669;42.678;23.332;2024-02-16T12:41:54;95023.91;;;16.93;55.73
13209;BME280;6669;42.678;23.332;2024-02-16T12:44:22;95023.47;;;17.03;55.54
13209;BME280;6669;42.678;23.332;2024-02-16T12:46:51;95013.97;;;17.15;55.73
13209;BME280;6669;42.678;23.332;2024-02-16T12:49:19;95022.00;;;17.60;55.10
13209;BME280;6669;42.678;23.332;2024-02-16T12:51:48;95004.00;;;17.57;54.85
13209;BME280;6669;42.678;23.332;2024-02-16T12:54:18;95028.63;;;17.76;54.48
13209;BME280;6669;42.678;23.332;2024-02-16T12:56:46;95019.72;;;17.77;54.00
13209;BME280;6669;42.678;23.332;2024-02-16T12:59:15;95019.13;;;17.82;54.42
13209;BME280;6669;42.678;23.332;2024-02-16T13:01:43;95020.75;;;17.83;53.88
13209;BME280;6669;42.678;23.332;2024-02-16T13:04:13;95022.69;;;18.08;53.42
13209;BME280;6669;42.678;23.332;2024-02-16T13:06:49;95015.84;;;18.00;53.69
13209;BME280;6669;42.678;23.332;2024-02-16T13:09:21;95020.84;;;18.08;53.62
13209;BME280;6669;42.678;23.332;2024-02-16T13:11:49;95023.53;;;18.02;53.28